Scotia, California
Current Conditions -  °F | °C
As of 5:10 AM on Saturday 25 Oct 2014 (Local Time) from KFOT Reporting Station
Broken Clouds Broken Clouds  
Wind Chill: 59°   Ceiling: 4100
Heat Index: 59°   Visibility: 10mi
Dew Point: 52°   Wind: 23mph
Humidity: 77%   Direction: 160°SSE
Pressure: 29.63"   Gusts: 33mph
Location:  40.48°N, 124.1°W
Report Text: KFOT 251210Z AUTO 16020G29KT 10SM FEW026 SCT034 BKN041 15/11 A2963 RMK AO1
Loading
Personal Weather Stations






























Interactive Weather Map
Tropical Storm Tracking
New forecast layout! Learn more

10-Day Weather Forecast

Advertisements
Track Severe Weather on mobile